Terminal Aerodrome Forecast
Issued by NWS Jacksonville, FL

Home | Current Version | Previous Version | Text Only | Print | Product List | Glossary On
Versions: 1 2 3 4 5 6 7 8 9 10 11 12 13 14 15
557
FTUS42 KJAX 240538
TAFSSI
TAF
KSSI 240538Z 2406/2506 22005KT P6SM SCT250
     FM241700 14012KT P6SM SCT040
     FM250200 17006KT P6SM FEW040=

USA.gov is the U.S. government's official web portal to all federal, state and local government web resources and services.